Time;durP1;ratioP1;P1;durP2;ratioP2;P2;SDS_P1;SDS_P2;PMS_P1;PMS_P2;Temp;Humidity;BMP_temperature;BMP_pressure;BME280_temperature;BME280_humidity;BME280_pressure;Samples;Min_cycle;Max_cycle;Signal;HPM_P1;HPM_P2
2022/06/11 00:01:40;;;;;;;5.50;5.00;;;14.10;99.90;;;14.80;84.17;98535.88;5223003;28;20661;-58
2022/06/11 00:04:19;;;;;;;5.40;4.95;;;14.10;99.90;;;14.72;82.63;98542.31;5221287;28;20267;-58
2022/06/11 00:06:58;;;;;;;5.90;5.05;;;13.90;99.90;;;14.75;83.11;98546.75;5223700;28;20193;-57
2022/06/11 00:09:34;;;;;;;5.00;4.57;;;13.90;99.90;;;14.70;82.40;98548.19;5218492;28;20197;-57
2022/06/11 00:12:10;;;;;;;6.05;5.38;;;13.80;99.90;;;14.62;84.84;98548.69;5212083;28;20236;-57
2022/06/11 00:14:46;;;;;;;5.50;4.97;;;13.90;99.90;;;14.61;84.08;98548.59;5211630;28;20254;-56
2022/06/11 00:17:23;;;;;;;6.05;5.55;;;13.80;99.90;;;14.61;84.49;98543.44;5220134;28;20247;-58
2022/06/11 00:19:56;;;;;;;5.57;5.05;;;13.90;99.90;;;14.62;83.73;98553.84;5219628;28;20597;-57
2022/06/11 00:22:29;;;;;;;5.05;4.70;;;13.80;99.90;;;14.60;84.81;98551.97;5218862;28;20315;-57
2022/06/11 00:25:05;;;;;;;5.57;5.18;;;13.80;99.90;;;14.62;83.36;98556.41;5219710;28;20213;-57
2022/06/11 00:27:39;;;;;;;5.07;4.68;;;13.80;99.90;;;14.66;83.54;98551.41;5223255;28;20307;-57
2022/06/11 01:50:39;;;;;;;5.70;5.35;;;13.00;99.90;;;13.45;91.38;98559.41;5198215;28;21080;-56
2022/06/11 01:53:41;;;;;;;6.22;5.63;;;13.00;99.90;;;13.45;89.97;98551.69;5302929;27;20202;-55
2022/06/11 01:57:07;;;;;;;6.40;5.80;;;12.80;99.90;;;13.42;89.09;98554.09;5291184;27;20234;-55
2022/06/11 02:00:01;;;;;;;5.57;5.20;;;12.80;99.90;;;13.38;88.30;98547.00;5264525;27;20670;-56
2022/06/11 02:02:57;;;;;;;6.30;5.15;;;12.70;99.90;;;13.39;88.05;98548.78;5296209;27;20735;-56
2022/06/11 02:05:45;;;;;;;6.35;5.57;;;12.60;99.90;;;13.37;88.13;98550.38;5292523;27;20210;-55
2022/06/11 02:08:32;;;;;;;5.85;5.32;;;12.60;99.90;;;13.37;88.71;98550.38;5297415;27;20250;-56
2022/06/11 02:11:13;;;;;;;5.85;5.45;;;12.70;99.90;;;13.36;88.11;98546.00;5295141;27;20622;-55
2022/06/11 02:13:55;;;;;;;6.03;5.55;;;12.70;99.90;;;13.34;88.79;98549.31;5300776;27;20747;-52
2022/06/11 02:16:34;;;;;;;6.30;5.82;;;12.70;99.90;;;13.39;87.15;98548.78;5297402;27;20190;-55
2022/06/11 02:19:13;;;;;;;5.53;5.10;;;12.60;99.90;;;13.32;86.92;98551.78;5295524;27;20629;-57
2022/06/11 02:21:56;;;;;;;6.18;5.65;;;12.60;99.90;;;13.22;87.74;98540.09;5300847;27;20199;-53
2022/06/11 02:24:35;;;;;;;5.53;5.07;;;12.40;99.90;;;13.27;87.60;98542.94;5294444;27;20244;-54
2022/06/11 02:27:16;;;;;;;5.38;5.05;;;12.50;99.90;;;13.34;87.27;98545.06;5296057;27;20211;-55
2022/06/11 02:29:51;;;;;;;5.70;5.22;;;12.50;99.90;;;13.29;87.96;98546.47;5298316;27;20218;-55
2022/06/11 02:32:29;;;;;;;5.78;5.03;;;12.50;99.90;;;13.29;86.81;98552.50;5294402;27;20190;-57
2022/06/11 02:35:07;;;;;;;5.65;5.20;;;12.50;99.90;;;13.21;87.59;98546.00;5302087;27;20233;-52
2022/06/11 02:37:48;;;;;;;5.68;5.20;;;12.40;99.90;;;13.23;88.18;98543.53;5293938;27;20240;-53
2022/06/11 02:40:27;;;;;;;5.25;4.95;;;12.50;99.90;;;13.23;87.80;98546.09;5301385;27;20223;-56
2022/06/11 02:43:01;;;;;;;6.22;5.82;;;12.50;99.90;;;13.25;87.73;98560.81;5295962;27;20660;-55
2022/06/11 02:45:34;;;;;;;5.63;5.22;;;12.50;99.90;;;13.22;88.32;98552.91;5297809;27;20244;-55
2022/06/11 02:48:08;;;;;;;6.18;5.57;;;12.50;99.90;;;13.16;88.98;98549.09;5296600;27;20223;-55
2022/06/11 02:50:43;;;;;;;6.28;5.70;;;12.50;99.90;;;13.18;88.72;98547.50;5286191;27;20280;-54
2022/06/11 02:53:18;;;;;;;6.05;5.60;;;12.50;99.90;;;13.19;88.82;98549.25;5286271;27;20222;-56
2022/06/11 02:55:52;;;;;;;6.25;5.78;;;12.50;99.90;;;13.19;88.73;98549.25;5279961;28;20199;-57
2022/06/11 02:58:25;;;;;;;5.75;5.28;;;12.50;99.90;;;13.21;88.16;98563.09;5283324;27;20596;-55
2022/06/11 03:00:58;;;;;;;5.90;5.43;;;12.40;99.90;;;13.16;88.18;98555.13;5280977;28;20195;-54
2022/06/11 03:03:31;;;;;;;6.07;5.57;;;12.40;99.90;;;13.10;89.01;98556.44;5287856;27;20231;-58
2022/06/11 03:06:06;;;;;;;6.30;5.88;;;12.40;99.90;;;13.13;88.17;98559.19;5285151;28;20248;-56
2022/06/11 03:08:40;;;;;;;6.30;5.80;;;12.40;99.90;;;13.17;88.43;98551.75;5276088;27;20219;-57
2022/06/11 03:11:14;;;;;;;6.30;5.80;;;12.40;99.90;;;13.18;88.53;98558.66;5286474;27;20331;-55
2022/06/11 03:13:48;;;;;;;6.22;5.60;;;12.50;99.90;;;13.23;87.65;98561.50;5283755;27;20256;-56
2022/06/11 03:16:22;;;;;;;6.30;5.70;;;12.50;99.90;;;13.19;88.64;98560.44;5282683;27;20256;-56
2022/06/11 03:18:55;;;;;;;6.15;5.53;;;12.40;99.90;;;13.16;89.44;98562.84;5279771;27;20595;-57
2022/06/11 03:21:28;;;;;;;6.20;5.70;;;12.50;99.90;;;13.20;88.80;98561.31;5284323;28;20199;-55
2022/06/11 03:24:03;;;;;;;6.30;5.80;;;12.50;99.90;;;13.15;88.66;98561.03;5283822;28;20219;-56
2022/06/11 03:26:37;;;;;;;5.80;5.40;;;12.40;99.90;;;13.10;86.84;98559.00;5279637;28;20206;-58
2022/06/11 03:29:11;;;;;;;6.47;5.88;;;12.40;99.90;;;13.03;86.77;98552.63;5281679;28;20227;-56
2022/06/11 03:31:45;;;;;;;6.45;5.50;;;12.30;99.90;;;13.03;87.79;98558.66;5286410;28;20243;-55
2022/06/11 03:34:19;;;;;;;6.53;6.00;;;12.30;99.90;;;13.03;88.71;98558.66;5278279;27;20920;-57
2022/06/11 03:36:55;;;;;;;5.57;5.20;;;12.40;99.90;;;12.98;87.69;98565.19;5285782;28;20188;-56
2022/06/11 03:39:30;;;;;;;7.30;6.13;;;12.30;99.90;;;12.92;87.99;98558.81;5285769;28;20215;-56
2022/06/11 03:42:04;;;;;;;6.03;5.60;;;12.20;99.90;;;12.90;88.39;98566.41;5282630;28;20268;-58
2022/06/11 03:44:37;;;;;;;6.15;5.55;;;12.20;99.90;;;13.00;90.33;98573.88;5281392;27;20199;-54
2022/06/11 03:47:11;;;;;;;6.18;5.68;;;12.30;99.90;;;13.03;88.12;98568.91;5287662;28;20244;-56
2022/06/11 03:49:46;;;;;;;7.07;6.47;;;12.30;99.90;;;13.04;89.75;98570.66;5284748;27;20268;-57
2022/06/11 03:52:19;;;;;;;6.55;5.95;;;12.40;99.90;;;13.05;88.40;98576.72;5281322;28;20614;-54
2022/06/11 03:54:55;;;;;;;6.45;5.97;;;12.30;99.90;;;13.08;87.99;98571.75;5284599;28;20199;-55
2022/06/11 03:57:28;;;;;;;6.80;6.20;;;12.40;99.90;;;13.14;89.28;98576.38;5282816;28;20237;-57
2022/06/11 04:00:02;;;;;;;6.80;6.20;;;12.40;99.90;;;13.16;88.36;98583.38;5282494;28;20261;-56
2022/06/11 04:02:36;;;;;;;6.72;6.25;;;12.40;99.90;;;13.05;88.48;98579.28;5285099;27;20225;-54
2022/06/11 04:05:10;;;;;;;7.10;6.47;;;12.30;99.90;;;13.12;88.51;98580.53;5282622;27;20260;-57
2022/06/11 04:07:43;;;;;;;6.80;5.95;;;12.40;99.90;;;13.13;88.74;98582.28;5286261;27;20619;-55
2022/06/11 04:10:17;;;;;;;7.10;6.47;;;12.40;99.90;;;13.05;87.87;98587.88;5280531;28;20300;-56
2022/06/11 04:12:52;;;;;;;7.18;6.57;;;12.30;99.90;;;13.14;88.59;98584.06;5280191;27;20237;-57
2022/06/11 04:15:25;;;;;;;7.13;6.63;;;12.40;99.90;;;13.20;89.97;98584.44;5283401;28;20605;-55
2022/06/11 04:18:00;;;;;;;7.10;6.50;;;12.50;99.90;;;13.26;89.19;98582.25;5286280;28;20195;-56
2022/06/11 04:20:33;;;;;;;6.78;6.28;;;12.60;99.90;;;13.32;87.70;98587.72;5284880;28;20222;-56
2022/06/11 04:23:07;;;;;;;6.75;6.25;;;12.60;99.90;;;13.37;88.66;98593.16;5280432;28;20198;-55
2022/06/11 04:25:42;;;;;;;6.90;6.28;;;12.70;99.90;;;13.45;87.64;98597.03;5284311;27;20203;-56
2022/06/11 04:28:15;;;;;;;7.80;6.47;;;12.70;99.90;;;13.49;88.39;98592.16;5281712;28;20712;-55
2022/06/11 04:30:48;;;;;;;6.78;6.25;;;12.80;99.90;;;13.51;86.93;98589.69;5281286;27;20688;-54
2022/06/11 04:33:21;;;;;;;6.43;5.93;;;12.80;99.90;;;13.36;85.87;98589.66;5284708;27;20196;-56
2022/06/11 04:35:55;;;;;;;7.22;6.70;;;12.60;99.90;;;13.41;87.30;98590.81;5282755;28;20257;-57
2022/06/11 04:38:28;;;;;;;5.80;5.30;;;12.70;99.90;;;13.50;87.71;98588.78;5283374;28;20195;-56
2022/06/11 04:41:03;;;;;;;6.30;5.80;;;12.80;99.90;;;13.66;86.84;98590.53;5279294;27;20245;-55
2022/06/11 04:43:36;;;;;;;6.32;5.72;;;13.00;99.90;;;14.03;85.87;98587.47;5279134;28;20191;-56
2022/06/11 04:46:11;;;;;;;5.93;5.53;;;13.50;99.90;;;14.88;83.10;98585.19;5283718;28;20282;-56
2022/06/11 04:48:45;;;;;;;5.97;5.50;;;14.20;99.90;;;15.70;79.25;98595.31;5283547;28;20222;-58
2022/06/11 04:51:19;;;;;;;6.38;5.78;;;15.00;99.90;;;16.35;73.80;98586.38;5283805;27;20676;-57
2022/06/11 04:53:52;;;;;;;5.82;5.32;;;15.50;99.90;;;16.90;72.34;98583.72;5282499;28;20263;-56
2022/06/11 04:56:29;;;;;;;5.60;5.10;;;16.00;99.90;;;17.21;68.85;98591.09;5280828;28;20253;-57
2022/06/11 04:59:04;;;;;;;7.07;6.22;;;16.20;99.90;;;17.54;67.44;98585.56;5282946;27;20272;-58
2022/06/11 05:01:44;;;;;;;6.10;5.60;;;16.40;99.90;;;18.13;65.81;98586.22;5281044;28;20279;-57
2022/06/11 05:04:18;;;;;;;6.10;5.60;;;16.90;99.90;;;18.14;65.75;98585.41;5283993;28;20584;-57
2022/06/11 05:06:57;;;;;;;6.28;5.60;;;16.90;99.90;;;18.61;64.38;98586.34;5283163;28;20203;-57
2022/06/11 05:09:30;;;;;;;5.55;5.05;;;17.20;99.90;;;18.93;62.32;98584.06;5274963;28;20211;-58
2022/06/11 05:12:07;;;;;;;5.30;4.38;;;17.40;99.90;;;18.97;61.85;98588.50;5281043;28;20196;-57
2022/06/11 05:14:40;;;;;;;6.75;4.95;;;17.50;99.90;;;19.42;61.36;98585.75;5276768;27;20617;-56
2022/06/11 05:17:13;;;;;;;4.80;4.40;;;17.90;99.90;;;19.72;61.05;98583.34;5281235;28;20196;-56
2022/06/11 05:19:46;;;;;;;5.15;4.68;;;18.10;99.90;;;20.20;58.76;98589.22;5283690;28;20698;-57
2022/06/11 05:22:19;;;;;;;5.95;5.32;;;18.50;99.90;;;20.42;58.10;98587.25;5281628;28;20615;-57
2022/06/11 05:24:52;;;;;;;5.32;4.82;;;18.60;99.90;;;20.66;56.75;98588.00;5278841;28;20230;-56
2022/06/11 05:27:28;;;;;;;4.90;4.60;;;18.80;99.90;;;20.54;55.48;98587.63;5281258;28;20236;-57
2022/06/11 05:30:07;;;;;;;5.43;4.93;;;18.70;99.90;;;20.33;57.54;98590.44;5279797;28;20223;-57
2022/06/11 05:32:41;;;;;;;6.70;4.55;;;18.70;99.90;;;19.97;58.60;98591.09;5280686;28;20260;-58
2022/06/11 05:35:23;;;;;;;4.60;4.25;;;18.70;99.90;;;20.61;56.49;98592.19;5278107;28;20205;-57
2022/06/11 05:38:00;;;;;;;5.18;4.72;;;19.00;99.90;;;20.87;56.13;98594.66;5279371;28;20203;-56
2022/06/11 05:40:38;;;;;;;5.13;4.80;;;19.00;99.90;;;20.79;54.59;98594.44;5282290;28;20206;-56
2022/06/11 05:43:14;;;;;;;4.90;4.50;;;19.40;99.90;;;21.27;54.93;98600.94;5280984;28;20606;-55
2022/06/11 05:45:51;;;;;;;4.60;4.22;;;19.50;99.90;;;21.68;53.23;98596.81;5280610;28;20616;-56
2022/06/11 05:48:29;;;;;;;4.43;4.05;;;19.80;99.90;;;21.95;52.38;98593.16;5279387;28;20207;-56
2022/06/11 05:51:03;;;;;;;5.32;4.63;;;19.90;99.80;;;21.58;52.91;98598.34;5277848;28;20632;-55
2022/06/11 05:53:40;;;;;;;4.38;4.07;;;19.80;99.60;;;21.94;52.78;98597.47;5277514;28;20194;-58
2022/06/11 05:56:14;;;;;;;5.13;4.50;;;19.80;99.90;;;22.32;52.31;98591.41;5282512;28;20217;-56
2022/06/11 05:58:53;;;;;;;4.97;4.47;;;20.20;99.50;;;22.57;51.49;98591.09;5273199;28;20210;-57
2022/06/11 06:01:39;;;;;;;4.55;4.15;;;20.40;99.50;;;22.92;50.39;98591.84;5281017;28;20206;-57
2022/06/11 06:04:12;;;;;;;4.20;3.80;;;20.70;98.70;;;23.12;50.36;98591.34;5281840;28;20191;-52
2022/06/11 06:06:46;;;;;;;4.75;4.45;;;20.70;98.90;;;23.26;49.40;98595.09;5277328;28;20851;-56
2022/06/11 06:09:19;;;;;;;4.97;4.50;;;20.90;98.20;;;23.28;50.37;98593.41;5280842;28;20211;-56
2022/06/11 06:11:52;;;;;;;5.03;4.53;;;21.00;98.70;;;23.46;49.57;98594.59;5276076;28;20227;-57
2022/06/11 06:14:26;;;;;;;4.60;4.20;;;21.10;98.40;;;23.97;47.99;98596.34;5275026;28;20257;-55
2022/06/11 06:17:00;;;;;;;5.22;4.10;;;21.50;97.40;;;24.37;47.23;98597.81;5280946;28;20735;-58
2022/06/11 06:19:53;;;;;;;4.57;4.20;;;21.80;96.90;;;24.84;46.44;98594.09;5282936;28;20704;-56
2022/06/11 06:22:27;;;;;;;4.93;4.13;;;22.30;96.20;;;24.94;45.59;98596.81;5278973;28;20241;-57
2022/06/11 06:25:01;;;;;;;4.78;4.18;;;22.30;96.10;;;25.07;45.48;98602.22;5274153;28;20580;-58
2022/06/11 06:27:34;;;;;;;5.30;4.22;;;22.40;95.80;;;25.30;44.98;98599.88;5281550;28;20737;-58
2022/06/11 06:30:10;;;;;;;4.60;4.03;;;22.60;95.60;;;25.55;44.25;98601.88;5277834;28;20236;-58
2022/06/11 06:32:43;;;;;;;4.43;4.03;;;22.70;95.30;;;25.63;44.04;98608.03;5284329;28;20194;-58
2022/06/11 06:35:16;;;;;;;5.90;4.18;;;22.80;95.20;;;26.04;43.19;98602.31;5282447;28;20210;-57
2022/06/11 06:37:49;;;;;;;5.95;4.10;;;23.20;94.40;;;26.15;43.08;98604.13;5287408;28;20198;-62
2022/06/11 06:40:23;;;;;;;4.18;3.72;;;23.30;94.20;;;26.58;42.04;98601.78;5282524;27;20253;-58
2022/06/11 06:42:56;;;;;;;5.80;3.67;;;23.60;93.70;;;27.02;41.64;98606.38;5278182;28;20211;-59
2022/06/11 06:45:30;;;;;;;4.93;3.50;;;24.00;93.10;;;27.20;40.60;98606.44;5281565;28;20192;-59
2022/06/11 06:48:04;;;;;;;4.90;3.75;;;24.30;92.50;;;27.24;40.90;98597.69;5289281;28;20221;-60
2022/06/11 06:50:38;;;;;;;6.10;4.03;;;24.50;92.40;;;27.22;40.45;98602.06;5285994;28;20222;-61
2022/06/11 06:53:11;;;;;;;4.45;3.28;;;24.50;92.10;;;27.59;39.92;98599.53;5282227;28;20245;-61
2022/06/11 06:55:45;;;;;;;4.03;3.63;;;24.70;91.60;;;27.48;40.34;98603.88;5282223;28;20199;-58
2022/06/11 06:58:18;;;;;;;5.13;3.08;;;24.70;91.80;;;27.59;40.35;98594.25;5288982;27;20198;-61
2022/06/11 07:00:53;;;;;;;6.93;3.72;;;24.90;91.90;;;28.07;39.29;98606.56;5284787;28;20211;-60
2022/06/11 07:03:26;;;;;;;3.80;3.50;;;25.20;91.40;;;28.25;39.91;98596.88;5288869;28;20203;-59
2022/06/11 07:06:03;;;;;;;4.07;3.50;;;25.50;91.30;;;28.67;38.12;98597.66;5276561;28;20195;-60
2022/06/11 07:08:36;;;;;;;5.18;3.80;;;25.80;90.50;;;28.67;38.56;98600.28;5288581;28;20621;-59
2022/06/11 07:11:09;;;;;;;5.32;3.38;;;25.90;90.20;;;28.50;39.20;98597.72;5276516;28;20264;-59
2022/06/11 07:13:42;;;;;;;4.22;3.20;;;26.00;90.20;;;29.05;38.86;98597.56;5282685;28;20195;-58
2022/06/11 07:16:21;;;;;;;3.45;2.97;;;26.20;90.60;;;29.30;38.10;98593.03;5281406;28;20290;-60
2022/06/11 07:19:01;;;;;;;3.42;3.13;;;26.60;89.70;;;29.48;38.55;98594.66;5280754;28;20259;-59
2022/06/11 07:21:44;;;;;;;3.53;3.20;;;27.00;89.10;;;30.00;36.67;98591.63;5276847;28;20184;-60
2022/06/11 07:24:22;;;;;;;4.07;3.40;;;27.10;87.50;;;30.02;36.40;98594.25;5276851;28;20187;-58
2022/06/11 07:27:08;;;;;;;4.13;3.10;;;27.10;87.50;;;30.09;35.94;98586.25;5281831;28;20206;-59
2022/06/11 07:29:47;;;;;;;4.22;2.83;;;27.20;86.90;;;30.05;35.87;98584.56;5284454;28;20264;-60
2022/06/11 07:32:25;;;;;;;3.38;2.90;;;27.20;85.90;;;29.91;36.20;98589.09;5276439;28;20447;-60
2022/06/11 07:35:00;;;;;;;3.10;2.80;;;27.30;85.70;;;30.09;35.90;98574.84;5283252;28;20314;-60
2022/06/11 07:37:34;;;;;;;2.88;2.60;;;27.40;85.50;;;30.00;36.40;98594.25;5276194;28;20648;-62
2022/06/11 07:40:09;;;;;;;3.08;2.70;;;27.40;86.60;;;30.13;36.31;98592.38;5283787;28;20218;-60
2022/06/11 07:42:42;;;;;;;2.92;2.67;;;27.60;85.40;;;30.22;36.13;98583.56;5284592;28;20248;-60
2022/06/11 07:45:15;;;;;;;2.53;2.22;;;27.80;85.20;;;30.77;34.71;98589.97;5279618;28;20518;-58
2022/06/11 07:47:56;;;;;;;2.55;2.35;;;28.00;84.00;;;31.12;33.64;98592.19;5280336;28;20195;-60
2022/06/11 07:50:33;;;;;;;2.80;2.60;;;28.30;82.50;;;31.13;33.98;98593.91;5285401;28;20229;-61
2022/06/11 07:53:08;;;;;;;3.33;2.70;;;28.10;83.10;;;31.26;33.72;98582.28;5280255;28;20767;-60
2022/06/11 07:55:44;;;;;;;2.63;2.17;;;28.20;82.20;;;31.26;33.31;98590.22;5280840;28;20237;-61
2022/06/11 07:58:20;;;;;;;2.30;2.10;;;28.10;81.50;;;31.52;32.48;98591.63;5281007;28;20596;-61
2022/06/11 08:00:54;;;;;;;2.42;2.20;;;28.30;80.30;;;31.35;33.19;98594.50;5279322;28;20187;-61
2022/06/11 08:03:31;;;;;;;1.90;1.80;;;28.30;81.40;;;31.58;33.39;98581.81;5282029;28;20195;-61
2022/06/11 08:06:06;;;;;;;2.78;2.50;;;28.40;81.50;;;31.28;34.22;98588.44;5277290;28;20202;-61
2022/06/11 08:08:39;;;;;;;3.05;2.17;;;28.30;82.80;;;31.77;31.43;98586.81;5285548;28;20190;-61
2022/06/11 08:11:13;;;;;;;1.73;1.63;;;28.50;78.80;;;31.98;31.79;98596.19;5283443;28;20203;-62
2022/06/11 08:13:47;;;;;;;2.42;2.20;;;28.80;78.70;;;32.26;30.74;98591.28;5284334;28;20280;-61
2022/06/11 08:16:20;;;;;;;3.47;2.00;;;29.00;77.60;;;32.19;31.27;98590.50;5279989;28;20199;-61
2022/06/11 08:18:55;;;;;;;2.10;1.83;;;28.80;77.70;;;32.09;30.79;98588.94;5277555;28;20218;-61
2022/06/11 08:21:28;;;;;;;3.35;2.60;;;28.90;77.30;;;31.76;31.09;98590.34;5287042;28;20254;-60
2022/06/11 08:24:01;;;;;;;2.17;1.98;;;28.70;77.10;;;31.39;31.96;98588.28;5279413;28;20195;-61
2022/06/11 08:26:35;;;;;;;2.42;1.95;;;28.80;76.80;;;31.11;32.65;98596.59;5284347;28;20416;-61
2022/06/11 08:29:08;;;;;;;2.65;2.00;;;28.70;77.50;;;31.24;31.41;98592.00;5279222;28;21186;-61
2022/06/11 08:31:41;;;;;;;1.90;1.80;;;28.60;75.80;;;30.94;31.96;98593.31;5282237;28;20215;-60
2022/06/11 08:34:16;;;;;;;2.17;1.95;;;28.60;75.60;;;30.83;32.29;98596.06;5278903;28;20195;-60
2022/06/11 08:36:49;;;;;;;2.60;1.85;;;28.70;75.50;;;30.81;32.00;98599.63;5279194;28;20349;-59
2022/06/11 08:39:22;;;;;;;2.97;2.00;;;28.70;74.80;;;30.84;31.50;98587.25;5279300;28;20254;-60
2022/06/11 08:41:57;;;;;;;2.55;2.17;;;28.50;75.00;;;30.54;32.63;98593.75;5281191;28;20631;-60
2022/06/11 08:44:35;;;;;;;3.85;1.95;;;28.60;76.10;;;30.40;32.34;98591.25;5281631;27;20222;-60
2022/06/11 08:47:14;;;;;;;2.60;2.03;;;28.60;73.90;;;30.59;32.06;98581.38;5276589;28;20194;-60
2022/06/11 08:49:55;;;;;;;1.83;1.73;;;28.80;73.80;;;30.47;30.35;98574.44;5273504;28;20284;-60
2022/06/11 08:52:31;;;;;;;2.08;1.75;;;28.60;70.50;;;30.74;29.95;98575.91;5274917;28;20218;-60
2022/06/11 08:55:06;;;;;;;2.13;1.90;;;29.00;69.30;;;30.74;29.48;98581.19;5281921;28;20286;-60
2022/06/11 08:58:00;;;;;;;2.30;2.03;;;29.00;68.80;;;30.70;30.35;98575.94;5284534;28;20194;-60
2022/06/11 09:00:41;;;;;;;2.67;2.05;;;29.20;69.80;;;30.40;30.93;98574.56;5279610;27;20627;-60
2022/06/11 09:03:38;;;;;;;2.05;1.95;;;29.00;70.00;;;30.19;31.75;98568.59;5283958;27;20222;-60
2022/06/11 09:06:56;;;;;;;2.50;1.75;;;28.90;71.40;;;30.37;30.44;98570.19;5282503;28;20198;-60
2022/06/11 09:09:44;;;;;;;2.00;1.80;;;29.00;69.00;;;30.28;29.94;98565.88;5278851;28;20343;-60
2022/06/11 09:12:46;;;;;;;3.35;2.03;;;28.80;68.80;;;30.42;30.64;98567.47;5283459;28;20207;-60
2022/06/11 09:15:34;;;;;;;2.38;1.85;;;29.10;69.40;;;30.25;31.69;98565.91;5282594;28;20666;-60
2022/06/11 09:18:26;;;;;;;2.15;1.92;;;29.00;70.10;;;30.28;31.66;98560.63;5285043;28;20213;-60
2022/06/11 09:21:18;;;;;;;2.20;2.08;;;28.90;70.80;;;30.13;30.52;98566.00;5284139;28;20234;-60
2022/06/11 09:24:13;;;;;;;2.42;2.00;;;28.80;68.80;;;30.03;31.46;98567.88;5284185;28;20604;-59
2022/06/11 09:26:50;;;;;;;2.70;2.10;;;28.70;69.80;;;30.05;32.13;98568.72;5280887;28;20682;-60
2022/06/11 09:29:30;;;;;;;1.95;1.85;;;28.70;70.70;;;30.12;30.34;98569.53;5283994;28;20218;-60
2022/06/11 09:32:13;;;;;;;2.30;2.10;;;28.60;68.10;;;29.91;29.92;98565.34;5280345;28;20218;-60
2022/06/11 09:34:52;;;;;;;2.90;2.10;;;28.60;67.50;;;29.61;31.14;98567.31;5273191;28;20690;-60
2022/06/11 09:37:31;;;;;;;3.28;2.13;;;28.20;70.00;;;29.34;32.73;98568.41;5281953;28;20267;-59
2022/06/11 09:40:19;;;;;;;2.95;2.10;;;27.90;72.60;;;29.27;32.83;98568.44;5282656;28;20249;-60
2022/06/11 09:43:09;;;;;;;2.05;1.95;;;27.80;71.80;;;29.22;31.84;98562.31;5277502;28;20195;-60
2022/06/11 09:45:52;;;;;;;2.25;2.05;;;27.90;69.60;;;29.23;32.27;98561.47;5277086;28;20678;-56
2022/06/11 09:48:42;;;;;;;2.65;2.10;;;28.00;70.40;;;29.32;31.31;98564.91;5279378;28;20624;-59
2022/06/11 09:51:24;;;;;;;2.75;2.10;;;28.20;68.60;;;29.29;31.23;98562.28;5282334;28;20233;-59
2022/06/11 09:54:20;;;;;;;4.18;2.10;;;28.00;68.50;;;29.16;32.38;98563.25;5279563;28;20249;-58
2022/06/11 09:57:08;;;;;;;2.67;2.00;;;27.80;70.60;;;29.16;32.20;98563.25;5283638;28;20687;-59
2022/06/11 09:59:46;;;;;;;1.95;1.70;;;27.90;69.50;;;29.09;32.28;98565.03;5275553;28;20219;-56
2022/06/11 10:02:33;;;;;;;2.45;1.77;;;28.00;70.60;;;29.05;32.29;98565.09;5286417;28;20187;-58
2022/06/11 10:05:16;;;;;;;2.88;2.00;;;28.00;69.60;;;29.07;31.66;98556.28;5284258;28;20203;-59
2022/06/11 10:07:57;;;;;;;2.75;2.00;;;28.00;68.60;;;28.77;32.52;98556.41;5289143;28;20247;-59
2022/06/11 10:10:34;;;;;;;2.42;2.20;;;27.80;69.20;;;28.66;31.89;98562.59;5281565;27;20231;-58
2022/06/11 10:13:28;;;;;;;2.13;1.92;;;27.70;68.20;;;28.40;32.89;98551.25;5288903;27;20219;-57
2022/06/11 10:16:21;;;;;;;2.05;1.85;;;27.60;69.60;;;28.66;31.72;98557.31;5287348;28;21791;-56
2022/06/11 10:19:13;;;;;;;1.92;1.77;;;27.60;68.00;;;28.57;30.49;98554.75;5278830;27;20288;-60
2022/06/11 10:21:58;;;;;;;2.70;2.00;;;27.40;68.20;;;28.43;31.85;98559.19;5277218;27;20302;-59
2022/06/11 10:24:34;;;;;;;2.03;1.83;;;27.30;69.60;;;28.46;32.74;98564.41;5282308;27;20202;-59
2022/06/11 10:27:12;;;;;;;3.83;2.10;;;27.40;69.80;;;28.44;32.25;98567.03;5287756;28;20198;-60
2022/06/11 10:29:51;;;;;;;2.40;2.05;;;27.50;68.50;;;28.73;32.22;98560.78;5277906;27;20230;-60
2022/06/11 10:32:29;;;;;;;2.30;2.10;;;27.70;69.20;;;28.69;31.83;98562.56;5281190;27;20198;-60
2022/06/11 10:35:15;;;;;;;2.72;2.03;;;27.60;68.20;;;28.03;32.27;98559.22;5288130;27;20198;-60
2022/06/11 10:37:56;;;;;;;2.45;2.13;;;27.30;67.50;;;28.07;34.03;98556.59;5281685;28;20605;-60
2022/06/11 10:40:36;;;;;;;1.98;1.77;;;27.10;72.00;;;28.00;33.10;98560.09;5279251;28;20639;-60
2022/06/11 10:43:20;;;;;;;2.10;1.75;;;27.00;70.20;;;28.01;33.90;98563.59;5279041;28;20243;-60
2022/06/11 10:45:56;;;;;;;2.28;2.08;;;27.10;70.30;;;28.04;33.35;98558.34;5282465;28;20651;-60
2022/06/11 10:48:36;;;;;;;2.13;1.92;;;27.20;70.00;;;28.22;32.93;98558.31;5278559;28;20203;-59
2022/06/11 10:51:16;;;;;;;2.22;1.98;;;27.30;70.20;;;28.35;32.69;98555.66;5280754;28;20251;-60
2022/06/11 10:54:05;;;;;;;3.00;2.08;;;27.40;69.20;;;28.33;32.05;98550.41;5274341;27;20258;-59
2022/06/11 10:56:48;;;;;;;1.95;1.80;;;27.40;68.60;;;28.41;33.09;98553.00;5281904;28;20196;-60
2022/06/11 10:59:33;;;;;;;1.98;1.80;;;27.40;70.50;;;28.42;32.27;98553.03;5276786;28;20275;-60
2022/06/11 11:02:24;;;;;;;2.60;1.70;;;27.40;68.80;;;28.50;31.51;98550.38;5284677;28;20206;-60
2022/06/11 11:05:02;;;;;;;2.10;1.90;;;27.50;67.40;;;28.65;31.55;98537.16;5277278;28;20225;-59
2022/06/11 11:07:53;;;;;;;2.33;1.67;;;27.60;68.10;;;28.57;31.97;98540.72;5278999;28;20195;-60
2022/06/11 11:10:44;;;;;;;2.50;1.80;;;27.60;68.50;;;28.55;32.52;98545.09;5280019;28;20234;-60
2022/06/11 11:13:25;;;;;;;1.90;1.80;;;27.60;69.10;;;28.64;31.35;98543.28;5289617;28;20211;-60
2022/06/11 11:16:08;;;;;;;3.45;1.70;;;27.60;67.10;;;28.64;32.13;98535.41;5282960;28;20231;-60
2022/06/11 11:18:57;;;;;;;2.20;2.00;;;27.70;68.70;;;28.67;30.54;98538.03;5277288;28;20683;-59
2022/06/11 11:21:35;;;;;;;2.55;1.90;;;27.60;65.70;;;28.40;31.87;98532.84;5278320;28;20651;-60
2022/06/11 11:24:14;;;;;;;2.20;2.10;;;27.30;67.20;;;28.21;31.08;98532.88;5281913;28;21140;-60
2022/06/11 11:26:58;;;;;;;2.15;2.00;;;27.10;67.00;;;28.23;31.64;98533.78;5283331;27;20190;-59
2022/06/11 11:29:34;;;;;;;2.08;1.80;;;27.20;68.40;;;28.28;31.53;98534.63;5275212;28;20222;-60
2022/06/11 11:32:29;;;;;;;2.80;2.30;;;27.30;67.40;;;28.15;32.42;98527.66;5280921;28;20194;-59
2022/06/11 11:35:20;;;;;;;2.22;1.80;;;27.10;68.80;;;28.12;33.35;98519.78;5281773;27;20211;-60
2022/06/11 11:38:02;;;;;;;1.98;1.85;;;27.20;68.90;;;28.12;32.79;98517.16;5284454;28;20348;-60
2022/06/11 11:40:49;;;;;;;2.15;1.70;;;27.30;68.70;;;28.20;32.41;98525.03;5280048;28;20629;-59
2022/06/11 11:43:33;;;;;;;3.40;2.10;;;27.30;68.30;;;28.08;32.96;98525.94;5282841;28;20191;-60
2022/06/11 11:46:12;;;;;;;2.85;1.92;;;27.20;69.30;;;28.24;30.92;98519.75;5282283;27;20637;-58
2022/06/11 11:48:49;;;;;;;2.72;1.70;;;27.30;65.30;;;28.03;30.90;98517.19;5277389;28;20351;-59
2022/06/11 11:51:28;;;;;;;2.05;1.90;;;27.00;66.00;;;28.22;31.70;98518.88;5278814;27;20226;-60
2022/06/11 11:54:05;;;;;;;2.40;1.70;;;27.20;67.00;;;28.14;31.16;98514.53;5286588;28;20246;-58
2022/06/11 11:56:42;;;;;;;2.08;1.70;;;27.10;66.70;;;28.04;31.26;98514.56;5275186;28;20198;-59
2022/06/11 11:59:20;;;;;;;1.60;1.50;;;27.10;65.90;;;27.82;31.62;98518.97;5286927;28;20214;-60
2022/06/11 12:01:57;;;;;;;2.92;1.95;;;26.80;65.90;;;27.75;32.42;98511.91;5277269;28;20664;-60
2022/06/11 12:04:36;;;;;;;1.90;1.80;;;26.80;68.40;;;27.76;32.19;98513.69;5284081;28;20205;-60
2022/06/11 12:07:16;;;;;;;2.80;1.85;;;26.80;67.40;;;27.83;33.75;98509.31;5282099;28;20618;-60
2022/06/11 12:09:53;;;;;;;1.83;1.73;;;26.80;70.70;;;27.85;32.59;98503.19;5276248;28;20429;-60
2022/06/11 12:12:32;;;;;;;3.13;1.60;;;26.80;68.40;;;27.92;32.84;98500.56;5278991;28;20202;-60
2022/06/11 12:15:20;;;;;;;4.10;1.80;;;26.90;68.50;;;27.72;32.49;98501.41;5273251;28;20273;-60
2022/06/11 12:17:56;;;;;;;2.25;2.05;;;26.90;67.70;;;27.76;32.59;98492.66;5274803;28;20335;-60
2022/06/11 12:20:38;;;;;;;1.90;1.52;;;26.80;68.10;;;27.65;32.93;98499.69;5277667;28;20237;-60
2022/06/11 12:23:23;;;;;;;2.30;2.00;;;26.80;69.00;;;27.59;33.23;98504.94;5283546;28;20199;-60
2022/06/11 12:26:00;;;;;;;1.88;1.73;;;26.70;69.00;;;27.73;33.13;98500.56;5283949;28;20202;-60
2022/06/11 12:28:38;;;;;;;2.20;1.90;;;26.70;68.60;;;27.60;32.66;98502.31;5279380;27;20206;-59